This is the latest recevied weather packets stored in our database for station/object K4DFD-13. If no packets are shown the sender has not sent any weather packets the latest 1 day(s).
| Time | Temp. | Humidity | Pressure | Rain* | Wind** | Luminosity | Snow |
|---|---|---|---|---|---|---|---|
| 1777981549 | 11.67° C | 74% | 1015.6 hPa | 0 mm | 0 m/s | - | - |
| 1777981249 | 10.56° C | 77% | 1015.7 hPa | 0 mm | 0 m/s | - | - |
| 1777980956 | 9.44° C | 82% | 1015.7 hPa | 0 mm | 0 m/s | - | - |
| 1777980648 | 8.33° C | 84% | 1015.8 hPa | 0 mm | 0 m/s | - | - |
| 1777980353 | 8.33° C | 85% | 1016 hPa | 0 mm | 0 m/s | - | - |
| 1777980067 | 8.33° C | 85% | 1016.1 hPa | 0 mm | 0 m/s | - | - |
| 1777979747 | 7.78° C | 85% | 1016 hPa | 0 mm | 0 m/s | - | - |
| 1777979446 | 7.78° C | 86% | 1016 hPa | 0 mm | 0 m/s | - | - |
| 1777979146 | 7.78° C | 87% | 1015.8 hPa | 0 mm | 0 m/s | - | - |
| 1777978866 | 7.22° C | 87% | 1015.7 hPa | 0 mm | 0 m/s | - | - |
| 1777978558 | 7.78° C | 86% | 1015.7 hPa | 0 mm | 0.45 m/s, 277° | - | - |
| 1777978265 | 7.78° C | 86% | 1015.6 hPa | 0 mm | 0.45 m/s, 210° | - | - |
| 1777977964 | 7.22° C | 87% | 1015.6 hPa | 0 mm | 0.45 m/s, 204° | - | - |
| 1777977664 | 7.22° C | 87% | 1015.5 hPa | 0 mm | 0.45 m/s, 235° | - | - |
| 1777977349 | 7.22° C | 87% | 1015.5 hPa | 0 mm | 0.89 m/s, 241° | - | - |
| 1777977043 | 7.22° C | 87% | 1015.5 hPa | 0 mm | 0.45 m/s, 296° | - | - |
| 1777976743 | 7.22° C | 87% | 1015.4 hPa | 0 mm | 0 m/s | - | - |
| 1777976443 | 7.78° C | 86% | 1015.4 hPa | 0 mm | 0.89 m/s, 289° | - | - |
| 1777976142 | 7.78° C | 85% | 1015.4 hPa | 0 mm | 0.89 m/s, 216° | - | - |
| 1777975842 | 7.78° C | 84% | 1015.4 hPa | 0 mm | 0 m/s | - | - |
| 1777975542 | 7.78° C | 84% | 1015.3 hPa | 0 mm | 0 m/s | - | - |
| 1777975261 | 7.78° C | 84% | 1015.3 hPa | 0 mm | 0 m/s | - | - |
| 1777974961 | 7.78° C | 84% | 1015.2 hPa | 0 mm | 0 m/s | - | - |
| 1777974641 | 8.33° C | 83% | 1015.2 hPa | 0 mm | 0 m/s | - | - |
| 1777974340 | 8.33° C | 82% | 1015.2 hPa | 0 mm | 0 m/s | - | - |
* Rain latest hour (hover to see other rain measurements)
** Current wind speed in m/s (hover to see current wind gust speed)